Terminal Aerodrome Forecast
Issued by NWS

Home | Current Version | Previous Version | Text Only | Print | Product List | Glossary On
Versions: 1 2 3 4 5 6 7 8 9 10 11 12 13
000
FTAK31 PANC 291137
TAFAGK
TAF
PAGK 291137Z 2912/3012 36007KT P6SM SCT100
     FM292000 05010G18KT P6SM VCSH BKN080
     FM300500 12007G15KT P6SM VCSH SCT080 BKN120=

USA.gov is the U.S. government's official web portal to all federal, state and local government web resources and services.